Time;durP1;ratioP1;P1;durP2;ratioP2;P2;SDS_P1;SDS_P2;PMS_P1;PMS_P2;Temp;Humidity;BMP_temperature;BMP_pressure;BME280_temperature;BME280_humidity;BME280_pressure;Samples;Min_cycle;Max_cycle;Signal;HPM_P1;HPM_P2
2022/04/19 00:00:10;;;;;;;7.03;4.30;;;;;;;4.91;90.30;101839.13;4895337;29;20100;-81
2022/04/19 00:02:36;;;;;;;5.50;3.90;;;;;;;4.88;90.57;101842.06;4897572;29;20340;-81
2022/04/19 00:05:02;;;;;;;6.95;3.97;;;;;;;4.81;90.79;101848.94;4881076;29;20033;-80
2022/04/19 00:07:27;;;;;;;5.53;3.75;;;;;;;4.76;91.51;101841.31;4881249;29;20452;-81
2022/04/19 00:09:53;;;;;;;7.38;3.75;;;;;;;4.73;91.49;101830.94;4884106;29;20045;-81
2022/04/19 00:12:19;;;;;;;6.13;4.00;;;;;;;4.71;91.51;101836.41;4894493;29;20068;-81
2022/04/19 00:14:44;;;;;;;6.13;4.00;;;;;;;4.69;92.00;101833.03;4903234;29;20029;-81
2022/04/19 00:17:10;;;;;;;4.75;3.50;;;;;;;4.65;91.24;101834.28;4880217;29;20036;-81
2022/04/19 00:19:36;;;;;;;5.85;3.78;;;;;;;4.59;92.40;101833.97;4881142;29;20443;-81
2022/04/19 00:22:02;;;;;;;12.07;3.88;;;;;;;4.48;92.75;101822.44;4880438;29;20028;-81
2022/04/19 00:24:28;;;;;;;5.15;3.40;;;;;;;4.51;92.71;101837.34;4882170;29;20040;-81
2022/04/19 00:26:55;;;;;;;5.10;3.90;;;;;;;4.42;93.44;101817.66;4894589;29;20033;-81
2022/04/19 00:29:20;;;;;;;5.63;3.80;;;;;;;4.16;93.26;101785.28;4883493;29;20031;-81
2022/04/19 00:31:46;;;;;;;7.43;3.55;;;;;;;4.42;92.95;101835.47;4882878;29;20347;-81
2022/04/19 00:34:11;;;;;;;7.03;4.22;;;;;;;4.40;93.83;101835.59;4881655;29;20029;-81
2022/04/19 00:36:37;;;;;;;8.93;3.47;;;;;;;4.35;93.41;101831.66;4885273;29;20049;-82
2022/04/19 00:39:03;;;;;;;7.78;3.47;;;;;;;4.30;93.70;101833.84;4885563;29;20757;-80
2022/04/19 00:41:29;;;;;;;5.78;3.47;;;;;;;4.23;93.58;101826.38;4866010;29;20044;-81
2022/04/19 00:43:54;;;;;;;7.50;3.72;;;;;;;4.21;94.29;101815.03;4880112;29;20104;-81
2022/04/19 00:46:20;;;;;;;5.93;3.67;;;;;;;4.18;93.94;101812.63;4882494;29;20519;-82
2022/04/19 00:48:45;;;;;;;5.93;3.47;;;;;;;4.08;94.05;101803.75;4882338;29;20025;-81
2022/04/19 00:51:12;;;;;;;5.82;3.20;;;;;;;4.22;94.85;101821.19;4879989;29;20037;-81
2022/04/19 00:53:37;;;;;;;5.97;3.88;;;;;;;4.20;94.31;101821.31;4882102;29;20084;-81
2022/04/19 00:56:03;;;;;;;5.32;3.53;;;;;;;4.04;94.38;101790.81;4880148;29;20120;-81
2022/04/19 00:58:29;;;;;;;4.95;3.42;;;;;;;4.18;95.15;101819.78;4881269;29;20048;-81
2022/04/19 01:00:55;;;;;;;5.05;3.40;;;;;;;3.91;95.23;101775.06;4881722;29;20043;-80
2022/04/19 01:03:21;;;;;;;5.32;3.78;;;;;;;3.94;95.57;101796.97;4882267;29;20108;-81
2022/04/19 01:05:48;;;;;;;5.07;3.42;;;;;;;4.13;95.95;101824.66;4878363;29;20353;-80
2022/04/19 01:08:14;;;;;;;4.55;3.47;;;;;;;4.08;95.56;101819.75;4881119;29;20029;-81
2022/04/19 01:10:42;;;;;;;6.90;3.88;;;;;;;3.68;97.04;101763.72;4880004;29;20482;-80
2022/04/19 01:13:17;;;;;;;6.63;3.50;;;;;;;3.99;96.71;101826.69;4879444;29;20124;-81
2022/04/19 01:15:51;;;;;;;6.30;3.80;;;;;;;3.98;96.46;101832.16;4880130;29;20123;-80
2022/04/19 01:18:20;;;;;;;6.73;3.87;;;;;;;4.03;96.16;101829.09;4878957;29;20501;-81
2022/04/19 01:20:48;;;;;;;4.38;3.17;;;;;;;3.96;96.03;101807.47;4886637;29;20045;-81
2022/04/19 01:23:14;;;;;;;4.95;3.63;;;;;;;4.14;95.79;101816.56;4879397;29;20471;-81
2022/04/19 01:25:39;;;;;;;5.25;3.47;;;;;;;4.21;94.85;101820.38;4883620;29;20033;-80
2022/04/19 01:28:05;;;;;;;5.25;3.30;;;;;;;4.28;95.01;101826.00;4873525;29;20412;-81
2022/04/19 01:30:32;;;;;;;7.30;3.65;;;;;;;4.19;94.35;101806.31;4879540;29;20517;-81
2022/04/19 01:32:58;;;;;;;7.50;3.30;;;;;;;4.28;94.58;101822.50;4880220;29;20044;-81
2022/04/19 01:35:23;;;;;;;5.32;3.20;;;;;;;4.37;94.17;101819.00;4879574;29;20696;-81
2022/04/19 01:37:50;;;;;;;5.00;3.20;;;;;;;4.32;93.57;101794.59;4879192;29;20040;-81
2022/04/19 01:40:16;;;;;;;5.45;3.53;;;;;;;4.54;93.21;101821.06;4880991;29;20025;-80
2022/04/19 01:42:58;;;;;;;6.85;3.70;;;;;;;4.58;92.68;101822.47;4881165;29;20040;-81
2022/04/19 01:45:24;;;;;;;6.13;3.38;;;;;;;4.59;92.33;101812.66;4879913;29;20123;-81
2022/04/19 01:47:53;;;;;;;5.90;3.53;;;;;;;4.48;92.36;101795.78;4880388;29;20067;-81
2022/04/19 01:50:20;;;;;;;6.22;3.53;;;;;;;4.62;91.35;101813.22;4881089;29;20032;-82
2022/04/19 01:52:47;;;;;;;6.95;3.53;;;;;;;4.69;90.91;101808.19;4886959;29;20040;-81
2022/04/19 01:55:15;;;;;;;7.50;3.35;;;;;;;4.69;90.10;101809.03;4885823;29;20463;-81
2022/04/19 01:57:45;;;;;;;4.53;3.00;;;;;;;4.69;89.70;101805.53;4881506;29;20460;-81
2022/04/19 02:00:13;;;;;;;5.35;3.45;;;;;;;4.69;89.91;101808.19;4879721;29;20037;-80
2022/04/19 02:02:39;;;;;;;5.55;3.50;;;;;;;4.56;89.67;101788.94;4881256;29;20029;-81
2022/04/19 02:05:05;;;;;;;5.55;3.30;;;;;;;4.66;89.35;101808.47;4880120;29;20080;-81
2022/04/19 02:07:32;;;;;;;5.78;3.17;;;;;;;4.52;88.80;101783.03;4879283;29;20364;-81
2022/04/19 02:09:59;;;;;;;5.53;3.38;;;;;;;4.71;89.22;101812.41;4879538;29;20460;-81
2022/04/19 02:12:25;;;;;;;6.22;3.22;;;;;;;4.68;88.97;101818.03;4848226;29;20176;-81
2022/04/19 02:14:50;;;;;;;5.45;3.13;;;;;;;4.66;88.32;101813.78;4881147;29;20116;-80
2022/04/19 02:17:22;;;;;;;7.75;3.10;;;;;;;4.60;89.20;101804.53;4879258;29;20061;-81
2022/04/19 02:19:47;;;;;;;5.65;3.20;;;;;;;4.61;88.81;101805.38;4881278;29;20047;-80
2022/04/19 02:22:13;;;;;;;4.72;3.08;;;;;;;4.59;89.32;101807.31;4878085;29;20029;-81
2022/04/19 02:24:39;;;;;;;5.50;3.33;;;;;;;4.38;89.05;101784.25;4880074;29;20033;-81
2022/04/19 02:27:05;;;;;;;4.57;3.30;;;;;;;4.50;88.86;101813.47;4880217;29;20048;-81
2022/04/19 02:29:31;;;;;;;4.65;3.28;;;;;;;4.44;89.64;101805.03;4895279;29;20021;-81
2022/04/19 02:31:57;;;;;;;5.32;3.30;;;;;;;4.40;89.62;101805.44;4879217;29;20047;-81
2022/04/19 02:34:22;;;;;;;6.70;3.50;;;;;;;4.29;89.93;101782.41;4863771;29;20025;-80
2022/04/19 02:36:48;;;;;;;10.73;3.53;;;;;;;4.37;89.60;101805.69;4877484;29;20085;-81
2022/04/19 02:39:13;;;;;;;4.45;3.10;;;;;;;4.30;90.02;101800.06;4887162;29;20030;-81
2022/04/19 02:41:38;;;;;;;4.63;3.25;;;;;;;4.33;90.01;101805.13;4855603;29;20136;-81
2022/04/19 02:44:07;;;;;;;4.68;3.38;;;;;;;4.32;90.16;101802.59;4882446;29;20037;-81
2022/04/19 02:46:35;;;;;;;5.28;3.25;;;;;;;4.31;90.06;101803.59;4882369;29;20029;-81
2022/04/19 02:49:02;;;;;;;4.65;3.10;;;;;;;4.10;90.21;101771.66;4882394;29;20025;-81
2022/04/19 02:51:28;;;;;;;5.40;3.45;;;;;;;4.26;90.06;101800.47;4899447;29;20033;-81
2022/04/19 02:53:53;;;;;;;6.25;4.03;;;;;;;4.23;89.85;101805.06;4882460;29;20029;-81
2022/04/19 02:56:19;;;;;;;6.10;3.47;;;;;;;4.21;89.95;101801.72;4883050;29;20033;-81
2022/04/19 02:58:45;;;;;;;6.03;3.53;;;;;;;4.18;89.96;101807.31;4881832;29;20029;-81
2022/04/19 03:01:11;;;;;;;5.13;3.22;;;;;;;4.16;90.09;101806.59;4899073;29;20460;-81
2022/04/19 03:03:36;;;;;;;5.15;3.35;;;;;;;4.11;90.26;101821.31;4883627;29;20048;-81
2022/04/19 03:06:02;;;;;;;6.82;3.58;;;;;;;4.09;90.62;101810.75;4871433;29;20133;-81
2022/04/19 03:08:28;;;;;;;5.05;3.63;;;;;;;4.07;90.35;101819.84;4870503;29;20037;-81
2022/04/19 03:10:55;;;;;;;5.18;3.40;;;;;;;4.06;90.93;101821.69;4882062;29;20531;-81
2022/04/19 03:13:20;;;;;;;5.75;3.30;;;;;;;3.91;90.69;101802.53;4882773;29;20364;-81
2022/04/19 03:15:46;;;;;;;4.45;3.22;;;;;;;3.97;90.69;101825.13;4881813;29;20033;-81
2022/04/19 03:18:12;;;;;;;4.47;3.45;;;;;;;3.86;90.81;101822.53;4869269;29;20029;-81
2022/04/19 03:20:37;;;;;;;5.22;3.22;;;;;;;3.81;91.86;101822.06;4867316;29;20040;-81
2022/04/19 03:28:31;;;;;;;4.32;3.17;;;;;;;3.34;92.46;101774.53;4868652;29;20475;-80
2022/04/19 03:30:56;;;;;;;6.28;3.30;;;;;;;3.57;92.56;101815.19;4883625;29;20165;-81
2022/04/19 03:33:22;;;;;;;6.78;3.60;;;;;;;3.61;93.02;101819.31;4866383;29;20379;-81
2022/04/19 03:35:47;;;;;;;5.18;3.53;;;;;;;3.63;92.74;101821.81;4883470;29;20494;-81
2022/04/19 03:38:12;;;;;;;4.55;3.40;;;;;;;3.62;93.31;101818.31;4880713;29;20025;-81
2022/04/19 03:40:37;;;;;;;5.30;3.30;;;;;;;3.58;93.24;101814.22;4882703;29;20135;-81
2022/04/19 03:43:07;;;;;;;5.18;3.40;;;;;;;3.51;93.73;101808.59;4865873;29;20088;-81
2022/04/19 03:45:32;;;;;;;4.93;3.05;;;;;;;3.56;93.22;101818.00;4883707;29;20039;-81
2022/04/19 03:47:59;;;;;;;7.63;3.47;;;;;;;3.46;93.80;101818.75;4901477;29;20438;-80
2022/04/19 03:50:25;;;;;;;6.93;3.38;;;;;;;3.54;93.84;101828.75;4894425;29;20363;-81
2022/04/19 03:52:51;;;;;;;5.65;3.38;;;;;;;3.49;94.28;101810.50;4888130;29;20116;-81
2022/04/19 03:55:16;;;;;;;4.43;3.35;;;;;;;3.59;94.08;101823.91;4903982;29;20584;-81
2022/04/19 03:57:42;;;;;;;8.75;3.67;;;;;;;3.66;94.35;101821.56;4882118;29;20052;-82
2022/04/19 04:00:07;;;;;;;5.10;3.30;;;;;;;3.66;94.10;101813.56;4865613;29;20392;-81
2022/04/19 04:02:33;;;;;;;5.15;3.53;;;;;;;3.76;93.35;101825.13;4881632;29;20033;-81
2022/04/19 04:04:58;;;;;;;5.18;3.80;;;;;;;3.60;93.33;101793.63;4896725;29;20099;-82
2022/04/19 04:07:27;;;;;;;6.22;3.75;;;;;;;3.91;93.25;101834.50;4885026;29;20128;-82
2022/04/19 04:09:52;;;;;;;4.53;3.42;;;;;;;3.64;93.17;101778.25;4868030;29;20383;-82
2022/04/19 04:12:17;;;;;;;4.72;3.40;;;;;;;4.10;91.76;101824.91;4888272;29;20025;-82
2022/04/19 04:14:43;;;;;;;6.15;3.50;;;;;;;4.54;90.66;101841.56;5123127;23;20779;-79
2022/04/19 04:17:10;;;;;;;7.85;3.28;;;;;;;4.50;89.65;101838.28;4902111;29;20029;-80
2022/04/19 04:19:36;;;;;;;7.53;3.40;;;;;;;4.41;90.00;101833.78;5081865;23;20499;-79
2022/04/19 04:22:02;;;;;;;4.90;3.40;;;;;;;4.34;89.58;101812.16;4889827;29;20100;-79
2022/04/19 04:24:28;;;;;;;5.68;3.67;;;;;;;4.83;88.15;101830.97;4883717;29;20063;-78
2022/04/19 04:26:53;;;;;;;5.72;3.30;;;;;;;5.43;85.56;101821.09;4893742;29;20064;-84
2022/04/19 04:29:18;;;;;;;6.25;3.33;;;;;;;6.14;81.51;101795.84;5164374;23;20096;-78
2022/04/19 04:31:44;;;;;;;6.85;3.45;;;;;;;6.67;78.29;101749.72;4900760;29;20035;-79
2022/04/19 04:34:09;;;;;;;6.93;3.65;;;;;;;7.73;75.70;101829.19;4894319;29;20165;-79
2022/04/19 04:36:35;;;;;;;6.20;3.25;;;;;;;7.94;74.09;101811.91;4884730;29;20037;-81
2022/04/19 04:39:00;;;;;;;5.00;3.33;;;;;;;8.28;72.40;101835.25;4886901;29;20093;-82
2022/04/19 04:41:26;;;;;;;6.25;3.30;;;;;;;8.50;71.95;101833.91;4897153;29;20028;-82
2022/04/19 04:43:52;;;;;;;7.30;3.50;;;;;;;8.44;71.77;101828.19;4917398;29;20033;-82
2022/04/19 04:51:45;;;;;;;4.78;3.15;;;;;;;8.91;69.63;101827.72;4903165;29;20073;-84
2022/04/19 04:54:10;;;;;;;6.82;3.08;;;;;;;9.06;69.15;101832.44;4901865;29;20078;-83
2022/04/19 04:56:36;;;;;;;5.50;3.30;;;;;;;9.37;67.29;101828.13;4893556;29;20033;-83
2022/04/19 04:59:01;;;;;;;4.45;3.05;;;;;;;9.81;65.83;101827.81;4908947;29;20049;-83
2022/04/19 05:01:27;;;;;;;4.47;2.92;;;;;;;10.21;63.75;101818.00;4903241;29;20064;-82
2022/04/19 05:03:52;;;;;;;5.70;3.10;;;;;;;10.72;62.35;101821.22;4899412;29;20052;-82
2022/04/19 05:06:18;;;;;;;4.93;2.80;;;;;;;11.04;61.32;101824.75;4911889;29;20036;-82
2022/04/19 05:08:43;;;;;;;4.70;3.05;;;;;;;11.35;59.74;101821.19;4899205;29;20096;-82
2022/04/19 05:11:09;;;;;;;5.88;3.22;;;;;;;11.77;58.11;101831.47;4901190;29;20460;-80
2022/04/19 05:13:34;;;;;;;7.80;3.45;;;;;;;12.04;56.10;101808.50;4879728;29;20024;-82
2022/04/19 05:16:01;;;;;;;4.03;2.80;;;;;;;11.88;56.93;101820.28;4884252;29;20016;-80
2022/04/19 05:18:26;;;;;;;6.00;3.20;;;;;;;11.58;57.26;101827.41;4899088;29;20029;-79
2022/04/19 05:20:52;;;;;;;6.82;3.30;;;;;;;11.57;56.73;101828.44;4894223;29;20051;-79
2022/04/19 05:23:22;;;;;;;6.32;3.53;;;;;;;11.58;56.68;101826.59;4899259;29;20029;-79
2022/04/19 05:25:47;;;;;;;7.40;3.38;;;;;;;10.79;59.90;101826.72;4898738;29;20478;-79
2022/04/19 05:28:13;;;;;;;4.10;2.92;;;;;;;9.57;63.94;101819.72;4864604;29;20189;-80
2022/04/19 05:30:38;;;;;;;5.05;3.08;;;;;;;9.02;66.00;101809.59;4882813;29;20037;-81
2022/04/19 05:33:05;;;;;;;6.72;3.22;;;;;;;8.92;67.84;101829.38;4880211;29;20068;-79
2022/04/19 05:35:31;;;;;;;6.13;3.17;;;;;;;8.78;69.25;101835.38;4894369;29;20036;-79
2022/04/19 05:37:58;;;;;;;5.13;3.05;;;;;;;8.64;69.01;101826.09;4921943;29;20028;-83
2022/04/19 05:40:23;;;;;;;4.43;2.63;;;;;;;8.37;68.65;101816.38;4905844;29;20171;-82
2022/04/19 05:42:49;;;;;;;6.00;3.13;;;;;;;8.26;69.22;101797.03;4910394;29;20060;-83
2022/04/19 05:45:14;;;;;;;3.83;2.95;;;;;;;8.21;68.36;101795.69;4911090;29;20099;-83
2022/04/19 05:47:40;;;;;;;4.85;2.92;;;;;;;8.36;68.43;101846.88;4904737;29;20097;-83
2022/04/19 05:50:06;;;;;;;7.18;3.05;;;;;;;8.35;69.20;101839.84;4902438;29;20041;-82
2022/04/19 05:52:31;;;;;;;4.88;2.95;;;;;;;8.19;69.56;101820.97;4872081;29;20036;-82
2022/04/19 05:54:56;;;;;;;3.03;2.40;;;;;;;8.31;67.45;101842.97;4881554;29;20556;-83
2022/04/19 05:57:22;;;;;;;4.25;2.78;;;;;;;8.49;67.90;101845.63;4867859;29;20508;-82
2022/04/19 05:59:47;;;;;;;4.72;2.70;;;;;;;8.64;67.98;101844.03;4868485;29;20485;-80
2022/04/19 06:04:58;;;;;;;4.18;2.75;;;;;;;8.96;65.29;101845.16;4875891;29;20047;-79
2022/04/19 06:07:25;;;;;;;4.93;2.80;;;;;;;8.99;65.42;101821.50;4859449;29;20112;-81
2022/04/19 06:09:50;;;;;;;3.75;2.50;;;;;;;9.32;65.80;101851.97;4873480;29;20025;-82
2022/04/19 06:12:16;;;;;;;4.18;2.55;;;;;;;9.43;65.01;101847.28;4879670;29;20470;-81
2022/04/19 06:14:41;;;;;;;4.93;2.50;;;;;;;9.44;64.91;101841.75;4882165;29;20029;-81
2022/04/19 06:17:07;;;;;;;5.65;3.28;;;;;;;9.56;64.48;101856.50;4881184;29;20035;-80
2022/04/19 06:19:33;;;;;;;5.68;3.05;;;;;;;9.66;65.13;101856.34;4878432;29;20340;-80
2022/04/19 06:21:59;;;;;;;4.68;2.72;;;;;;;9.83;64.47;101858.06;4876822;29;20032;-80
2022/04/19 06:24:25;;;;;;;5.03;2.75;;;;;;;9.93;63.91;101865.09;4860054;29;20496;-81
2022/04/19 06:26:51;;;;;;;5.22;2.40;;;;;;;9.77;62.19;101837.22;4876187;29;20356;-79
2022/04/19 06:29:16;;;;;;;3.78;2.05;;;;;;;9.83;61.04;101860.75;4891560;29;20045;-79
2022/04/19 06:31:43;;;;;;;4.65;2.10;;;;;;;9.99;60.66;101859.88;4876298;29;20574;-81
2022/04/19 06:34:09;;;;;;;3.22;2.13;;;;;;;10.20;60.22;101845.91;4870871;29;20029;-80
2022/04/19 06:36:35;;;;;;;3.28;2.28;;;;;;;10.21;58.49;101834.13;4879822;29;20029;-80
2022/04/19 06:39:00;;;;;;;4.43;2.20;;;;;;;10.38;58.57;101850.28;4877410;29;20037;-80
2022/04/19 06:41:25;;;;;;;4.00;2.10;;;;;;;10.51;58.12;101850.56;4879591;29;20025;-80
2022/04/19 06:43:53;;;;;;;2.83;2.22;;;;;;;10.73;58.93;101836.38;4888141;29;20108;-82
2022/04/19 06:46:19;;;;;;;3.80;2.10;;;;;;;10.96;57.75;101844.50;4893010;29;20033;-81
2022/04/19 06:48:44;;;;;;;3.95;2.00;;;;;;;11.03;57.66;101850.88;4879742;29;20084;-81
2022/04/19 06:51:09;;;;;;;4.38;2.10;;;;;;;11.07;57.92;101851.34;4875839;29;20089;-81
2022/04/19 06:53:36;;;;;;;4.75;2.10;;;;;;;11.16;57.61;101852.97;4877420;29;20116;-80
2022/04/19 06:56:04;;;;;;;4.68;1.95;;;;;;;11.42;56.31;101866.13;4877895;29;20039;-80
2022/04/19 06:58:30;;;;;;;3.28;1.92;;;;;;;11.49;56.86;101871.66;4873357;29;20060;-80
2022/04/19 07:00:56;;;;;;;4.45;1.88;;;;;;;11.48;55.92;101843.00;4888414;29;20041;-80
2022/04/19 07:03:22;;;;;;;4.50;1.67;;;;;;;11.93;55.69;101874.53;4851584;29;20033;-82
2022/04/19 07:05:47;;;;;;;3.67;1.95;;;;;;;12.25;55.83;101872.56;4853796;29;20032;-82
2022/04/19 07:08:13;;;;;;;5.28;2.10;;;;;;;12.24;55.46;101868.16;4879036;29;20033;-82
2022/04/19 07:10:38;;;;;;;3.30;2.03;;;;;;;12.65;55.18;101871.28;4864833;29;20075;-82
2022/04/19 07:13:04;;;;;;;2.63;1.83;;;;;;;12.81;54.91;101872.91;4878901;29;20096;-82
2022/04/19 07:15:29;;;;;;;3.95;1.80;;;;;;;12.78;54.79;101864.34;4883621;29;20032;-80
2022/04/19 07:17:54;;;;;;;4.97;2.00;;;;;;;12.78;54.75;101875.16;4899935;29;20033;-83
2022/04/19 07:28:35;;;;;;;4.17;2.30;;;;;;;11.85;60.95;101868.34;4884631;29;20145;-81
2022/04/19 07:31:04;;;;;;;3.70;2.40;;;;;;;11.84;58.74;101877.44;4888376;29;20119;-82
2022/04/19 07:33:30;;;;;;;6.72;2.40;;;;;;;11.72;58.48;101856.31;4889030;29;20040;-81
2022/04/19 07:35:57;;;;;;;4.15;2.10;;;;;;;11.94;58.72;101875.34;4895665;29;20029;-81
2022/04/19 07:38:23;;;;;;;5.25;2.00;;;;;;;11.99;58.60;101883.75;4893190;29;20029;-83
2022/04/19 07:40:48;;;;;;;3.97;1.80;;;;;;;12.11;58.10;101890.38;4892768;29;20033;-83
2022/04/19 07:43:14;;;;;;;2.65;1.85;;;;;;;11.97;56.82;101862.34;4892104;29;20043;-83
2022/04/19 07:45:40;;;;;;;3.60;2.20;;;;;;;12.24;56.58;101895.16;4893221;29;20040;-83
2022/04/19 07:48:06;;;;;;;3.13;1.98;;;;;;;12.44;56.09;101893.59;4890614;29;20028;-82
2022/04/19 07:50:34;;;;;;;3.97;2.10;;;;;;;12.63;55.93;101886.81;4900868;29;20028;-83
2022/04/19 07:53:00;;;;;;;3.50;1.90;;;;;;;12.83;55.11;101883.53;4912358;29;20024;-83
2022/04/19 07:55:27;;;;;;;3.15;1.90;;;;;;;12.77;55.16;101857.28;4908274;29;20033;-82
2022/04/19 07:57:53;;;;;;;3.65;2.00;;;;;;;13.01;55.10;101905.59;4909769;29;20040;-82
2022/04/19 08:00:20;;;;;;;2.20;1.70;;;;;;;13.06;54.74;101902.34;4899655;29;20066;-84
2022/04/19 08:02:46;;;;;;;5.47;1.95;;;;;;;13.06;53.89;101903.16;4901902;29;20065;-83
2022/04/19 08:05:12;;;;;;;5.13;1.80;;;;;;;13.04;53.59;101905.22;4899557;29;20033;-83
2022/04/19 08:07:37;;;;;;;4.25;1.75;;;;;;;13.05;53.66;101898.81;4907007;29;20088;-82
2022/04/19 08:10:04;;;;;;;2.72;1.90;;;;;;;13.07;53.77;101888.63;4915811;29;20025;-81
2022/04/19 08:12:31;;;;;;;3.20;1.80;;;;;;;13.21;53.35;101905.88;4912192;29;20020;-84
2022/04/19 08:14:56;;;;;;;5.13;2.00;;;;;;;13.24;53.34;101899.22;4917645;29;20060;-83
2022/04/19 08:17:22;;;;;;;4.90;1.60;;;;;;;13.34;53.56;101897.06;4912616;29;20088;-83
2022/04/19 08:19:47;;;;;;;3.25;1.88;;;;;;;13.41;53.52;101906.13;4897656;29;20044;-84
2022/04/19 08:22:13;;;;;;;2.25;1.60;;;;;;;13.34;53.52;101887.13;4896770;29;20037;-83
2022/04/19 08:24:38;;;;;;;2.20;1.70;;;;;;;13.43;54.00;101900.50;4898052;29;20043;-83
2022/04/19 08:27:04;;;;;;;5.88;1.60;;;;;;;13.26;53.48;101871.00;4913821;29;20028;-83
2022/04/19 08:29:30;;;;;;;2.20;1.58;;;;;;;13.48;52.34;101901.63;4930194;29;20095;-84
2022/04/19 08:31:56;;;;;;;2.97;1.77;;;;;;;13.50;52.15;101904.94;4915181;29;20057;-83
2022/04/19 08:34:22;;;;;;;4.05;1.73;;;;;;;13.51;51.22;101905.78;4899116;29;20036;-82
2022/04/19 08:36:47;;;;;;;3.75;1.70;;;;;;;13.52;51.69;101900.22;4902490;29;20063;-83
2022/04/19 08:39:12;;;;;;;3.17;1.88;;;;;;;13.51;51.63;101898.53;4909747;29;20033;-84
2022/04/19 08:41:39;;;;;;;2.95;1.52;;;;;;;13.55;51.75;101896.28;4879855;29;20093;-83
2022/04/19 08:44:05;;;;;;;6.03;1.73;;;;;;;13.65;52.97;101906.78;4907337;29;20056;-83
2022/04/19 08:46:37;;;;;;;2.95;1.48;;;;;;;13.58;53.50;101891.31;4913114;29;20025;-82
2022/04/19 08:49:04;;;;;;;2.22;1.70;;;;;;;13.52;54.35;101867.75;4915729;29;20428;-84
2022/04/19 08:51:34;;;;;;;4.53;1.80;;;;;;;13.69;55.47;101884.56;4938446;29;20036;-83
2022/04/19 08:59:30;;;;;;;4.25;1.67;;;;;;;13.78;59.51;101906.91;4898851;29;20432;-82
2022/04/19 09:01:55;;;;;;;2.92;1.50;;;;;;;13.73;60.23;101903.94;4893027;29;20044;-81
2022/04/19 09:04:25;;;;;;;3.13;1.70;;;;;;;13.73;59.37;101883.13;4894878;29;20029;-84
2022/04/19 09:06:58;;;;;;;5.38;2.00;;;;;;;13.96;57.79;101893.75;4889466;29;20061;-83
2022/04/19 09:09:25;;;;;;;3.28;1.30;;;;;;;13.99;55.76;101881.72;4914496;29;20020;-84
2022/04/19 09:11:52;;;;;;;2.60;1.73;;;;;;;13.93;55.10;101877.06;4928425;29;20036;-84
2022/04/19 09:14:18;;;;;;;4.28;1.60;;;;;;;14.00;55.53;101886.91;4912897;29;20112;-82
2022/04/19 09:16:45;;;;;;;3.42;1.63;;;;;;;14.10;54.78;101884.75;4903967;29;20041;-81
2022/04/19 09:19:25;;;;;;;3.55;2.13;;;;;;;14.04;56.89;101890.09;4893580;29;20036;-82
2022/04/19 09:21:51;;;;;;;2.25;1.75;;;;;;;13.88;58.12;101890.38;4894218;29;20044;-79
2022/04/19 09:24:18;;;;;;;3.55;1.85;;;;;;;13.95;57.19;101892.09;4899358;29;20100;-81
2022/04/19 09:26:48;;;;;;;2.65;1.67;;;;;;;14.12;54.94;101897.22;4891296;29;20053;-83
2022/04/19 09:29:27;;;;;;;5.85;2.08;;;;;;;14.13;56.27;101896.19;4889463;29;20057;-83
2022/04/19 09:31:57;;;;;;;3.38;1.92;;;;;;;13.92;55.82;101861.88;4911257;29;20040;-84
2022/04/19 09:34:33;;;;;;;8.98;2.00;;;;;;;14.32;54.63;101890.09;4884531;29;20040;-81
2022/04/19 09:37:06;;;;;;;4.55;1.92;;;;;;;14.43;55.07;101892.25;4879783;29;20408;-82
2022/04/19 09:39:34;;;;;;;3.00;1.60;;;;;;;14.38;55.31;101878.47;4892768;29;20112;-80
2022/04/19 09:42:08;;;;;;;3.78;1.70;;;;;;;14.48;56.34;101892.50;4882992;29;20035;-81
2022/04/19 09:44:41;;;;;;;4.27;2.10;;;;;;;14.54;57.38;101890.91;4884802;29;20039;-82
2022/04/19 09:47:11;;;;;;;2.95;2.05;;;;;;;14.61;57.14;101890.94;4903890;29;20059;-82
2022/04/19 09:49:53;;;;;;;3.38;1.75;;;;;;;14.48;56.15;101881.66;4881608;29;20057;-81
2022/04/19 09:52:21;;;;;;;6.28;2.00;;;;;;;14.72;56.02;101887.66;4879339;29;20029;-80
2022/04/19 09:55:03;;;;;;;5.38;2.00;;;;;;;14.72;54.88;101877.66;4879953;29;20025;-82
2022/04/19 09:57:31;;;;;;;7.35;1.88;;;;;;;14.73;54.29;101881.19;4873842;29;20033;-81
2022/04/19 09:59:58;;;;;;;5.38;1.80;;;;;;;14.66;54.77;101864.06;4876809;29;20040;-79
2022/04/19 10:08:11;;;;;;;2.22;1.80;;;;;;;14.70;55.99;101878.88;4875984;29;20040;-78
2022/04/19 10:10:40;;;;;;;2.58;1.55;;;;;;;14.85;57.33;101886.91;4879397;29;20029;-78
2022/04/19 10:13:06;;;;;;;2.75;1.75;;;;;;;14.85;57.29;101887.72;4876465;29;20036;-79
2022/04/19 10:15:32;;;;;;;3.28;2.08;;;;;;;14.69;57.06;101878.06;4876022;29;20044;-78
2022/04/19 10:17:58;;;;;;;3.80;1.98;;;;;;;14.68;58.88;101878.28;4857929;29;20045;-78
2022/04/19 10:20:31;;;;;;;6.05;1.90;;;;;;;14.66;60.28;101883.88;4878129;29;20036;-78
2022/04/19 10:23:01;;;;;;;2.63;1.80;;;;;;;14.47;55.69;101857.47;4881388;29;20064;-78
2022/04/19 10:25:40;;;;;;;4.03;1.90;;;;;;;14.58;54.51;101873.22;4878970;29;20224;-78
2022/04/19 10:28:12;;;;;;;3.88;1.90;;;;;;;14.57;56.22;101880.50;4880310;29;20052;-78
2022/04/19 10:30:46;;;;;;;7.57;2.72;;;;;;;14.66;57.25;101881.16;4881145;29;20044;-78
2022/04/19 10:33:48;;;;;;;2.90;1.50;;;;;;;14.69;58.41;101882.66;4878744;29;20033;-78
2022/04/19 10:36:37;;;;;;;2.45;1.70;;;;;;;14.71;58.65;101883.28;4882021;29;20429;-78
2022/04/19 10:39:11;;;;;;;3.20;1.90;;;;;;;14.50;61.03;101878.75;4867574;29;20034;-78
2022/04/19 10:41:58;;;;;;;5.88;1.80;;;;;;;14.43;59.58;101880.56;4880683;29;20044;-78
2022/04/19 10:44:31;;;;;;;3.22;2.00;;;;;;;14.39;59.52;101882.00;4874679;29;20028;-78
2022/04/19 10:47:04;;;;;;;2.78;1.90;;;;;;;14.26;61.83;101867.34;4873132;29;20702;-78
2022/04/19 10:49:29;;;;;;;5.85;2.10;;;;;;;14.12;64.06;101875.56;4878028;29;20033;-79
2022/04/19 10:52:01;;;;;;;4.80;1.73;;;;;;;14.15;64.27;101891.44;4878859;29;20048;-79
2022/04/19 10:55:02;;;;;;;4.43;1.90;;;;;;;14.36;62.36;101888.66;4881127;29;20039;-80
2022/04/19 11:00:27;;;;;;;3.30;1.60;;;;;;;14.64;58.87;101888.66;4882979;29;20060;-80
2022/04/19 11:03:00;;;;;;;2.20;1.45;;;;;;;14.55;58.14;101874.44;4882519;29;20104;-79
2022/04/19 11:05:48;;;;;;;4.03;1.70;;;;;;;14.64;57.03;101888.66;4870366;29;20052;-79
2022/04/19 11:08:25;;;;;;;2.88;1.60;;;;;;;14.92;56.19;101887.75;4881734;29;20033;-80
2022/04/19 11:11:03;;;;;;;4.50;1.85;;;;;;;15.21;55.53;101883.94;4884976;29;20055;-79
2022/04/19 11:13:39;;;;;;;2.17;1.50;;;;;;;15.36;55.36;101879.16;4883081;29;20025;-79
2022/04/19 11:16:05;;;;;;;5.00;1.90;;;;;;;15.35;55.42;101882.09;4880870;29;20040;-78
2022/04/19 11:18:34;;;;;;;2.17;1.50;;;;;;;15.43;55.22;101882.75;4887747;29;20413;-78
2022/04/19 11:21:00;;;;;;;2.28;1.50;;;;;;;15.44;54.62;101881.69;4890098;29;20407;-76
2022/04/19 11:23:27;;;;;;;2.78;1.70;;;;;;;15.45;54.23;101877.94;4875984;29;20423;-77
2022/04/19 11:25:54;;;;;;;2.42;1.70;;;;;;;15.32;54.83;101867.06;4878782;29;20028;-79
2022/04/19 11:28:28;;;;;;;2.85;1.80;;;;;;;15.43;53.80;101880.03;4883001;29;20053;-79
2022/04/19 11:30:57;;;;;;;2.35;1.85;;;;;;;15.48;53.97;101876.69;4880342;29;20049;-78
2022/04/19 11:33:24;;;;;;;3.67;2.20;;;;;;;15.46;54.84;101879.63;4884423;29;20076;-80
2022/04/19 11:35:57;;;;;;;3.60;2.38;;;;;;;15.45;54.48;101858.13;4880621;29;20494;-79
2022/04/19 11:38:22;;;;;;;3.33;2.38;;;;;;;15.56;54.33;101865.63;4880794;29;20021;-79
2022/04/19 11:49:09;;;;;;;7.18;2.88;;;;;;;15.48;54.98;101861.25;4889879;29;20035;-79
2022/04/19 11:51:36;;;;;;;4.53;2.70;;;;;;;15.72;54.25;101878.84;4874109;29;20037;-77
2022/04/19 11:54:05;;;;;;;5.03;2.83;;;;;;;15.61;54.60;101881.31;4875647;29;20029;-77
2022/04/19 11:56:31;;;;;;;4.70;2.80;;;;;;;15.20;54.50;101866.00;4880866;29;20040;-77
2022/04/19 11:58:59;;;;;;;4.40;2.70;;;;;;;15.12;54.64;101879.72;4878405;29;20120;-79
2022/04/19 12:01:24;;;;;;;5.40;2.55;;;;;;;14.91;53.62;101857.13;4880603;29;20048;-79
2022/04/19 12:03:49;;;;;;;4.95;2.65;;;;;;;15.02;54.72;101872.78;4880592;29;20393;-78
2022/04/19 12:06:20;;;;;;;6.28;3.22;;;;;;;14.78;56.56;101868.72;4871555;29;20041;-78
2022/04/19 12:08:49;;;;;;;6.35;3.35;;;;;;;14.80;56.29;101863.97;4880903;29;20028;-79
2022/04/19 12:11:18;;;;;;;5.75;2.95;;;;;;;14.91;53.76;101875.25;4881236;29;20033;-77
2022/04/19 12:13:49;;;;;;;5.65;3.00;;;;;;;14.46;54.22;101826.84;4879990;29;20032;-77